sensor_id;sensor_type;location;lat;lon;timestamp;P1;durP1;ratioP1;P2;durP2;ratioP2
47866;SDS011;33628;50.806;11.586;2023-07-02T00:00:46;1.38;;;1.27;;
47866;SDS011;33628;50.806;11.586;2023-07-02T00:03:15;1.40;;;1.30;;
47866;SDS011;33628;50.806;11.586;2023-07-02T00:05:41;2.60;;;1.33;;
47866;SDS011;33628;50.806;11.586;2023-07-02T00:08:09;1.70;;;1.23;;
47866;SDS011;33628;50.806;11.586;2023-07-02T00:10:36;1.73;;;1.27;;
47866;SDS011;33628;50.806;11.586;2023-07-02T00:13:03;6.50;;;1.90;;
47866;SDS011;33628;50.806;11.586;2023-07-02T00:15:30;2.25;;;1.38;;
47866;SDS011;33628;50.806;11.586;2023-07-02T00:17:58;5.47;;;1.63;;
47866;SDS011;33628;50.806;11.586;2023-07-02T00:20:26;5.03;;;1.30;;
47866;SDS011;33628;50.806;11.586;2023-07-02T00:22:53;1.83;;;1.48;;
47866;SDS011;33628;50.806;11.586;2023-07-02T00:25:20;4.53;;;1.70;;
47866;SDS011;33628;50.806;11.586;2023-07-02T00:27:47;2.47;;;1.38;;
47866;SDS011;33628;50.806;11.586;2023-07-02T00:30:14;4.97;;;1.40;;
47866;SDS011;33628;50.806;11.586;2023-07-02T00:32:41;2.90;;;1.55;;
47866;SDS011;33628;50.806;11.586;2023-07-02T00:35:08;4.05;;;1.27;;
47866;SDS011;33628;50.806;11.586;2023-07-02T00:37:36;2.42;;;1.80;;
47866;SDS011;33628;50.806;11.586;2023-07-02T00:40:04;5.38;;;2.17;;
47866;SDS011;33628;50.806;11.586;2023-07-02T00:42:32;2.38;;;1.70;;
47866;SDS011;33628;50.806;11.586;2023-07-02T00:44:59;2.42;;;1.55;;
47866;SDS011;33628;50.806;11.586;2023-07-02T00:47:28;3.80;;;1.80;;
47866;SDS011;33628;50.806;11.586;2023-07-02T00:49:56;4.70;;;1.90;;
47866;SDS011;33628;50.806;11.586;2023-07-02T00:52:22;2.72;;;1.80;;
47866;SDS011;33628;50.806;11.586;2023-07-02T00:54:53;2.70;;;1.52;;
47866;SDS011;33628;50.806;11.586;2023-07-02T00:57:21;1.35;;;1.15;;
47866;SDS011;33628;50.806;11.586;2023-07-02T00:59:49;2.05;;;1.40;;
47866;SDS011;33628;50.806;11.586;2023-07-02T01:02:18;1.63;;;1.40;;
47866;SDS011;33628;50.806;11.586;2023-07-02T01:04:47;4.13;;;1.40;;
47866;SDS011;33628;50.806;11.586;2023-07-02T01:07:15;1.50;;;1.40;;
47866;SDS011;33628;50.806;11.586;2023-07-02T01:09:42;2.22;;;1.60;;
47866;SDS011;33628;50.806;11.586;2023-07-02T01:12:10;2.42;;;1.40;;
47866;SDS011;33628;50.806;11.586;2023-07-02T01:14:37;2.67;;;1.50;;
47866;SDS011;33628;50.806;11.586;2023-07-02T01:17:06;6.05;;;1.65;;
47866;SDS011;33628;50.806;11.586;2023-07-02T01:19:40;1.90;;;1.80;;
47866;SDS011;33628;50.806;11.586;2023-07-02T01:22:08;2.90;;;1.83;;
47866;SDS011;33628;50.806;11.586;2023-07-02T01:24:35;4.15;;;1.90;;
47866;SDS011;33628;50.806;11.586;2023-07-02T01:27:02;3.25;;;1.60;;
47866;SDS011;33628;50.806;11.586;2023-07-02T01:29:30;2.85;;;1.73;;
47866;SDS011;33628;50.806;11.586;2023-07-02T01:31:56;4.38;;;1.63;;
47866;SDS011;33628;50.806;11.586;2023-07-02T01:34:23;4.07;;;1.70;;
47866;SDS011;33628;50.806;11.586;2023-07-02T01:36:51;3.10;;;1.55;;
47866;SDS011;33628;50.806;11.586;2023-07-02T01:39:18;3.63;;;1.77;;
47866;SDS011;33628;50.806;11.586;2023-07-02T01:41:50;2.97;;;2.33;;
47866;SDS011;33628;50.806;11.586;2023-07-02T01:44:17;2.22;;;1.58;;
47866;SDS011;33628;50.806;11.586;2023-07-02T01:46:44;2.78;;;1.77;;
47866;SDS011;33628;50.806;11.586;2023-07-02T01:49:11;3.95;;;1.85;;
47866;SDS011;33628;50.806;11.586;2023-07-02T01:51:38;3.67;;;1.65;;
47866;SDS011;33628;50.806;11.586;2023-07-02T01:54:06;3.22;;;1.75;;
47866;SDS011;33628;50.806;11.586;2023-07-02T01:56:33;6.55;;;1.92;;
47866;SDS011;33628;50.806;11.586;2023-07-02T01:59:00;3.72;;;1.73;;
47866;SDS011;33628;50.806;11.586;2023-07-02T02:05:27;3.05;;;1.60;;
47866;SDS011;33628;50.806;11.586;2023-07-02T02:07:53;5.40;;;1.60;;
47866;SDS011;33628;50.806;11.586;2023-07-02T02:10:22;2.58;;;1.92;;
47866;SDS011;33628;50.806;11.586;2023-07-02T02:12:48;3.03;;;1.75;;
47866;SDS011;33628;50.806;11.586;2023-07-02T02:15:16;1.63;;;1.42;;
47866;SDS011;33628;50.806;11.586;2023-07-02T02:21:43;5.38;;;1.85;;
47866;SDS011;33628;50.806;11.586;2023-07-02T02:24:10;5.35;;;1.70;;
47866;SDS011;33628;50.806;11.586;2023-07-02T02:26:39;4.22;;;1.70;;
47866;SDS011;33628;50.806;11.586;2023-07-02T02:29:05;5.35;;;1.60;;
47866;SDS011;33628;50.806;11.586;2023-07-02T02:31:32;4.05;;;1.48;;
47866;SDS011;33628;50.806;11.586;2023-07-02T02:33:59;4.57;;;1.58;;
47866;SDS011;33628;50.806;11.586;2023-07-02T02:36:27;4.07;;;1.55;;
47866;SDS011;33628;50.806;11.586;2023-07-02T02:38:54;7.03;;;1.98;;
47866;SDS011;33628;50.806;11.586;2023-07-02T02:41:22;6.15;;;1.75;;
47866;SDS011;33628;50.806;11.586;2023-07-02T02:43:53;5.47;;;1.85;;
47866;SDS011;33628;50.806;11.586;2023-07-02T02:46:22;8.98;;;2.15;;
47866;SDS011;33628;50.806;11.586;2023-07-02T02:48:49;4.55;;;2.00;;
47866;SDS011;33628;50.806;11.586;2023-07-02T02:51:17;7.72;;;2.40;;
47866;SDS011;33628;50.806;11.586;2023-07-02T02:53:44;7.75;;;2.15;;
47866;SDS011;33628;50.806;11.586;2023-07-02T02:56:12;5.60;;;2.00;;
47866;SDS011;33628;50.806;11.586;2023-07-02T02:58:39;4.90;;;2.25;;
47866;SDS011;33628;50.806;11.586;2023-07-02T03:01:08;5.07;;;2.20;;
47866;SDS011;33628;50.806;11.586;2023-07-02T03:03:38;4.82;;;2.00;;
47866;SDS011;33628;50.806;11.586;2023-07-02T03:06:06;5.72;;;2.20;;
47866;SDS011;33628;50.806;11.586;2023-07-02T03:08:33;3.92;;;2.42;;
47866;SDS011;33628;50.806;11.586;2023-07-02T03:11:00;5.82;;;2.47;;
47866;SDS011;33628;50.806;11.586;2023-07-02T03:13:27;3.78;;;2.40;;
47866;SDS011;33628;50.806;11.586;2023-07-02T03:15:54;4.28;;;2.35;;
47866;SDS011;33628;50.806;11.586;2023-07-02T03:18:23;3.53;;;2.33;;
47866;SDS011;33628;50.806;11.586;2023-07-02T03:20:50;3.78;;;2.60;;
47866;SDS011;33628;50.806;11.586;2023-07-02T03:23:17;3.60;;;2.70;;
47866;SDS011;33628;50.806;11.586;2023-07-02T03:25:43;5.32;;;2.78;;
47866;SDS011;33628;50.806;11.586;2023-07-02T03:28:10;3.47;;;2.55;;
47866;SDS011;33628;50.806;11.586;2023-07-02T03:30:37;5.20;;;2.10;;
47866;SDS011;33628;50.806;11.586;2023-07-02T03:33:04;4.50;;;2.35;;
47866;SDS011;33628;50.806;11.586;2023-07-02T03:35:33;2.63;;;1.90;;
47866;SDS011;33628;50.806;11.586;2023-07-02T03:38:00;3.30;;;2.08;;
47866;SDS011;33628;50.806;11.586;2023-07-02T03:40:27;5.68;;;1.98;;
47866;SDS011;33628;50.806;11.586;2023-07-02T03:42:54;5.18;;;1.98;;
47866;SDS011;33628;50.806;11.586;2023-07-02T03:45:22;6.20;;;2.00;;
47866;SDS011;33628;50.806;11.586;2023-07-02T03:47:49;4.10;;;1.90;;
47866;SDS011;33628;50.806;11.586;2023-07-02T03:50:16;4.95;;;1.98;;
47866;SDS011;33628;50.806;11.586;2023-07-02T03:52:46;3.03;;;1.92;;
47866;SDS011;33628;50.806;11.586;2023-07-02T03:55:13;3.42;;;2.42;;
47866;SDS011;33628;50.806;11.586;2023-07-02T03:57:40;10.07;;;2.60;;
47866;SDS011;33628;50.806;11.586;2023-07-02T04:00:07;4.32;;;1.80;;
47866;SDS011;33628;50.806;11.586;2023-07-02T04:02:42;5.05;;;2.20;;
47866;SDS011;33628;50.806;11.586;2023-07-02T04:05:10;5.68;;;2.10;;
47866;SDS011;33628;50.806;11.586;2023-07-02T04:07:38;5.70;;;2.03;;
47866;SDS011;33628;50.806;11.586;2023-07-02T04:10:07;4.65;;;2.17;;
47866;SDS011;33628;50.806;11.586;2023-07-02T04:12:35;7.97;;;2.65;;
47866;SDS011;33628;50.806;11.586;2023-07-02T04:15:02;4.97;;;2.40;;
47866;SDS011;33628;50.806;11.586;2023-07-02T04:17:30;6.30;;;2.33;;
47866;SDS011;33628;50.806;11.586;2023-07-02T04:19:57;6.93;;;2.45;;
47866;SDS011;33628;50.806;11.586;2023-07-02T04:22:26;5.18;;;2.42;;
47866;SDS011;33628;50.806;11.586;2023-07-02T04:24:53;3.00;;;2.17;;
47866;SDS011;33628;50.806;11.586;2023-07-02T04:27:21;4.53;;;2.10;;
47866;SDS011;33628;50.806;11.586;2023-07-02T04:29:49;8.30;;;2.38;;
47866;SDS011;33628;50.806;11.586;2023-07-02T04:32:16;6.65;;;2.40;;
47866;SDS011;33628;50.806;11.586;2023-07-02T04:34:44;4.53;;;2.63;;
47866;SDS011;33628;50.806;11.586;2023-07-02T04:37:11;7.50;;;2.70;;
47866;SDS011;33628;50.806;11.586;2023-07-02T04:39:38;6.47;;;2.30;;
47866;SDS011;33628;50.806;11.586;2023-07-02T04:42:05;5.97;;;2.50;;
47866;SDS011;33628;50.806;11.586;2023-07-02T04:44:34;6.75;;;2.95;;
47866;SDS011;33628;50.806;11.586;2023-07-02T04:47:02;7.82;;;2.63;;
47866;SDS011;33628;50.806;11.586;2023-07-02T04:49:29;5.60;;;2.60;;
47866;SDS011;33628;50.806;11.586;2023-07-02T04:51:56;8.68;;;2.50;;
47866;SDS011;33628;50.806;11.586;2023-07-02T04:54:23;5.05;;;2.55;;
47866;SDS011;33628;50.806;11.586;2023-07-02T04:56:50;4.55;;;2.78;;
47866;SDS011;33628;50.806;11.586;2023-07-02T04:59:16;7.53;;;2.58;;
47866;SDS011;33628;50.806;11.586;2023-07-02T05:01:47;7.03;;;2.47;;
47866;SDS011;33628;50.806;11.586;2023-07-02T05:04:13;4.43;;;2.35;;
47866;SDS011;33628;50.806;11.586;2023-07-02T05:06:40;5.47;;;2.42;;
47866;SDS011;33628;50.806;11.586;2023-07-02T05:09:08;4.72;;;2.40;;
47866;SDS011;33628;50.806;11.586;2023-07-02T05:11:35;3.65;;;2.60;;
47866;SDS011;33628;50.806;11.586;2023-07-02T05:14:01;5.53;;;2.33;;
47866;SDS011;33628;50.806;11.586;2023-07-02T05:16:28;2.63;;;2.13;;
47866;SDS011;33628;50.806;11.586;2023-07-02T05:18:57;4.30;;;2.30;;
47866;SDS011;33628;50.806;11.586;2023-07-02T05:21:24;3.03;;;2.58;;
47866;SDS011;33628;50.806;11.586;2023-07-02T05:23:51;3.05;;;2.17;;
47866;SDS011;33628;50.806;11.586;2023-07-02T05:26:18;2.67;;;2.17;;
47866;SDS011;33628;50.806;11.586;2023-07-02T05:28:44;7.43;;;2.40;;
47866;SDS011;33628;50.806;11.586;2023-07-02T05:31:11;3.92;;;2.15;;
47866;SDS011;33628;50.806;11.586;2023-07-02T05:33:38;3.55;;;2.25;;
47866;SDS011;33628;50.806;11.586;2023-07-02T05:36:06;5.72;;;2.40;;
47866;SDS011;33628;50.806;11.586;2023-07-02T05:38:33;3.40;;;2.35;;
47866;SDS011;33628;50.806;11.586;2023-07-02T05:40:59;2.72;;;2.45;;
47866;SDS011;33628;50.806;11.586;2023-07-02T05:43:26;4.45;;;2.20;;
47866;SDS011;33628;50.806;11.586;2023-07-02T05:45:53;4.60;;;2.40;;
47866;SDS011;33628;50.806;11.586;2023-07-02T05:48:20;3.70;;;2.28;;
47866;SDS011;33628;50.806;11.586;2023-07-02T05:50:47;3.45;;;2.40;;
47866;SDS011;33628;50.806;11.586;2023-07-02T05:53:15;5.53;;;2.60;;
47866;SDS011;33628;50.806;11.586;2023-07-02T05:55:42;3.78;;;2.42;;
47866;SDS011;33628;50.806;11.586;2023-07-02T05:58:10;4.05;;;2.20;;
47866;SDS011;33628;50.806;11.586;2023-07-02T06:00:37;3.92;;;2.35;;
47866;SDS011;33628;50.806;11.586;2023-07-02T06:03:05;5.25;;;2.30;;
47866;SDS011;33628;50.806;11.586;2023-07-02T06:05:32;2.53;;;2.30;;
47866;SDS011;33628;50.806;11.586;2023-07-02T06:07:59;5.28;;;2.60;;
47866;SDS011;33628;50.806;11.586;2023-07-02T06:10:27;2.50;;;1.77;;
47866;SDS011;33628;50.806;11.586;2023-07-02T06:12:54;5.50;;;4.32;;
47866;SDS011;33628;50.806;11.586;2023-07-02T06:15:21;2.40;;;1.42;;
47866;SDS011;33628;50.806;11.586;2023-07-02T06:17:48;2.40;;;1.60;;
47866;SDS011;33628;50.806;11.586;2023-07-02T06:20:15;3.05;;;1.80;;
47866;SDS011;33628;50.806;11.586;2023-07-02T06:22:43;2.05;;;1.73;;
47866;SDS011;33628;50.806;11.586;2023-07-02T06:25:09;1.90;;;1.60;;
47866;SDS011;33628;50.806;11.586;2023-07-02T06:27:38;4.30;;;1.73;;
47866;SDS011;33628;50.806;11.586;2023-07-02T06:30:06;2.97;;;1.77;;
47866;SDS011;33628;50.806;11.586;2023-07-02T06:32:33;2.53;;;1.40;;
47866;SDS011;33628;50.806;11.586;2023-07-02T06:35:00;1.63;;;1.23;;
47866;SDS011;33628;50.806;11.586;2023-07-02T06:37:27;1.80;;;1.35;;
47866;SDS011;33628;50.806;11.586;2023-07-02T06:39:54;3.78;;;1.30;;
47866;SDS011;33628;50.806;11.586;2023-07-02T06:42:22;1.40;;;1.08;;
47866;SDS011;33628;50.806;11.586;2023-07-02T06:44:51;2.90;;;1.13;;
47866;SDS011;33628;50.806;11.586;2023-07-02T06:47:18;1.83;;;1.23;;
47866;SDS011;33628;50.806;11.586;2023-07-02T06:49:45;2.67;;;1.38;;
47866;SDS011;33628;50.806;11.586;2023-07-02T06:52:11;3.65;;;1.15;;
47866;SDS011;33628;50.806;11.586;2023-07-02T06:54:38;2.15;;;1.60;;
47866;SDS011;33628;50.806;11.586;2023-07-02T06:57:06;3.22;;;1.45;;
47866;SDS011;33628;50.806;11.586;2023-07-02T06:59:33;1.48;;;1.20;;
47866;SDS011;33628;50.806;11.586;2023-07-02T07:02:01;3.03;;;1.30;;
47866;SDS011;33628;50.806;11.586;2023-07-02T07:04:28;1.80;;;1.20;;
47866;SDS011;33628;50.806;11.586;2023-07-02T07:06:55;2.13;;;1.30;;
47866;SDS011;33628;50.806;11.586;2023-07-02T07:09:23;3.10;;;1.25;;
47866;SDS011;33628;50.806;11.586;2023-07-02T07:11:52;2.40;;;1.30;;
47866;SDS011;33628;50.806;11.586;2023-07-02T07:14:19;1.50;;;1.13;;
47866;SDS011;33628;50.806;11.586;2023-07-02T07:16:46;2.22;;;1.50;;
47866;SDS011;33628;50.806;11.586;2023-07-02T07:19:14;3.03;;;1.02;;
47866;SDS011;33628;50.806;11.586;2023-07-02T07:21:42;4.28;;;1.30;;
47866;SDS011;33628;50.806;11.586;2023-07-02T07:24:09;3.33;;;1.55;;
47866;SDS011;33628;50.806;11.586;2023-07-02T07:26:36;2.08;;;1.40;;
47866;SDS011;33628;50.806;11.586;2023-07-02T07:29:03;4.15;;;1.50;;
47866;SDS011;33628;50.806;11.586;2023-07-02T07:31:30;3.33;;;1.23;;
47866;SDS011;33628;50.806;11.586;2023-07-02T07:33:58;2.15;;;1.20;;
47866;SDS011;33628;50.806;11.586;2023-07-02T07:36:26;2.78;;;1.25;;
47866;SDS011;33628;50.806;11.586;2023-07-02T07:38:53;1.52;;;1.10;;
47866;SDS011;33628;50.806;11.586;2023-07-02T07:41:20;9.32;;;1.90;;
47866;SDS011;33628;50.806;11.586;2023-07-02T07:43:47;2.10;;;1.40;;
47866;SDS011;33628;50.806;11.586;2023-07-02T07:46:15;1.40;;;1.30;;
47866;SDS011;33628;50.806;11.586;2023-07-02T07:48:42;2.75;;;1.90;;
47866;SDS011;33628;50.806;11.586;2023-07-02T07:51:10;2.65;;;1.40;;
47866;SDS011;33628;50.806;11.586;2023-07-02T07:53:38;2.22;;;1.25;;
47866;SDS011;33628;50.806;11.586;2023-07-02T07:56:05;1.90;;;1.20;;
47866;SDS011;33628;50.806;11.586;2023-07-02T07:58:34;1.15;;;1.05;;
47866;SDS011;33628;50.806;11.586;2023-07-02T08:01:01;2.65;;;1.30;;
47866;SDS011;33628;50.806;11.586;2023-07-02T08:03:29;1.80;;;1.23;;
47866;SDS011;33628;50.806;11.586;2023-07-02T08:05:56;1.42;;;0.98;;
47866;SDS011;33628;50.806;11.586;2023-07-02T08:08:23;3.50;;;1.42;;
47866;SDS011;33628;50.806;11.586;2023-07-02T08:10:51;1.30;;;1.20;;
47866;SDS011;33628;50.806;11.586;2023-07-02T08:13:19;2.97;;;1.20;;
47866;SDS011;33628;50.806;11.586;2023-07-02T08:15:47;2.53;;;1.33;;
47866;SDS011;33628;50.806;11.586;2023-07-02T08:18:15;2.05;;;1.15;;
47866;SDS011;33628;50.806;11.586;2023-07-02T08:20:42;4.15;;;1.30;;
47866;SDS011;33628;50.806;11.586;2023-07-02T08:23:08;1.88;;;1.40;;
47866;SDS011;33628;50.806;11.586;2023-07-02T08:25:35;3.83;;;1.40;;
47866;SDS011;33628;50.806;11.586;2023-07-02T08:28:03;3.63;;;1.42;;
47866;SDS011;33628;50.806;11.586;2023-07-02T08:30:30;2.60;;;1.38;;
47866;SDS011;33628;50.806;11.586;2023-07-02T08:32:56;1.70;;;1.30;;
47866;SDS011;33628;50.806;11.586;2023-07-02T08:35:26;1.95;;;1.42;;
47866;SDS011;33628;50.806;11.586;2023-07-02T08:37:52;3.13;;;1.70;;
47866;SDS011;33628;50.806;11.586;2023-07-02T08:40:20;3.80;;;1.73;;
47866;SDS011;33628;50.806;11.586;2023-07-02T08:42:46;3.70;;;1.80;;
47866;SDS011;33628;50.806;11.586;2023-07-02T08:45:15;2.85;;;1.95;;
47866;SDS011;33628;50.806;11.586;2023-07-02T08:47:44;2.35;;;1.60;;
47866;SDS011;33628;50.806;11.586;2023-07-02T08:50:11;3.83;;;1.40;;
47866;SDS011;33628;50.806;11.586;2023-07-02T08:52:38;3.97;;;2.13;;
47866;SDS011;33628;50.806;11.586;2023-07-02T08:55:05;3.70;;;1.75;;
47866;SDS011;33628;50.806;11.586;2023-07-02T08:57:34;5.55;;;2.38;;
47866;SDS011;33628;50.806;11.586;2023-07-02T09:00:03;4.40;;;2.28;;
47866;SDS011;33628;50.806;11.586;2023-07-02T09:02:35;4.05;;;2.35;;
47866;SDS011;33628;50.806;11.586;2023-07-02T09:05:01;2.38;;;1.70;;
47866;SDS011;33628;50.806;11.586;2023-07-02T09:07:28;2.38;;;1.83;;
47866;SDS011;33628;50.806;11.586;2023-07-02T09:09:55;4.13;;;1.88;;
47866;SDS011;33628;50.806;11.586;2023-07-02T09:12:23;3.45;;;1.88;;
47866;SDS011;33628;50.806;11.586;2023-07-02T09:14:54;5.55;;;2.17;;
47866;SDS011;33628;50.806;11.586;2023-07-02T09:17:26;3.88;;;1.77;;
47866;SDS011;33628;50.806;11.586;2023-07-02T09:19:54;2.75;;;1.70;;
47866;SDS011;33628;50.806;11.586;2023-07-02T09:22:21;3.53;;;2.10;;
47866;SDS011;33628;50.806;11.586;2023-07-02T09:24:51;3.72;;;2.30;;
47866;SDS011;33628;50.806;11.586;2023-07-02T09:27:32;3.72;;;1.98;;
47866;SDS011;33628;50.806;11.586;2023-07-02T09:30:04;4.47;;;2.00;;
47866;SDS011;33628;50.806;11.586;2023-07-02T09:32:32;2.50;;;1.73;;
47866;SDS011;33628;50.806;11.586;2023-07-02T09:35:00;5.55;;;1.80;;
47866;SDS011;33628;50.806;11.586;2023-07-02T09:37:27;3.28;;;1.92;;
47866;SDS011;33628;50.806;11.586;2023-07-02T09:39:54;3.17;;;1.52;;
47866;SDS011;33628;50.806;11.586;2023-07-02T09:49:43;3.58;;;1.98;;
47866;SDS011;33628;50.806;11.586;2023-07-02T09:52:14;3.55;;;2.08;;
47866;SDS011;33628;50.806;11.586;2023-07-02T09:54:41;4.68;;;1.95;;
47866;SDS011;33628;50.806;11.586;2023-07-02T09:57:09;3.40;;;1.58;;
47866;SDS011;33628;50.806;11.586;2023-07-02T09:59:35;3.63;;;2.13;;
47866;SDS011;33628;50.806;11.586;2023-07-02T10:02:07;5.38;;;1.67;;
47866;SDS011;33628;50.806;11.586;2023-07-02T10:04:42;3.55;;;1.85;;
47866;SDS011;33628;50.806;11.586;2023-07-02T10:07:12;2.15;;;1.42;;
47866;SDS011;33628;50.806;11.586;2023-07-02T10:09:42;3.92;;;1.70;;
47866;SDS011;33628;50.806;11.586;2023-07-02T10:12:17;3.60;;;1.73;;
47866;SDS011;33628;50.806;11.586;2023-07-02T10:14:44;4.55;;;1.83;;
47866;SDS011;33628;50.806;11.586;2023-07-02T10:17:22;3.80;;;2.17;;
47866;SDS011;33628;50.806;11.586;2023-07-02T10:19:50;4.88;;;1.70;;
47866;SDS011;33628;50.806;11.586;2023-07-02T10:22:18;2.55;;;1.48;;
47866;SDS011;33628;50.806;11.586;2023-07-02T10:24:51;5.20;;;2.10;;
47866;SDS011;33628;50.806;11.586;2023-07-02T10:27:20;2.90;;;1.92;;
47866;SDS011;33628;50.806;11.586;2023-07-02T10:29:50;5.55;;;1.80;;
47866;SDS011;33628;50.806;11.586;2023-07-02T10:32:25;5.05;;;1.88;;
47866;SDS011;33628;50.806;11.586;2023-07-02T10:34:53;2.80;;;1.95;;
47866;SDS011;33628;50.806;11.586;2023-07-02T10:37:21;3.20;;;2.17;;
47866;SDS011;33628;50.806;11.586;2023-07-02T10:39:50;3.28;;;2.03;;
47866;SDS011;33628;50.806;11.586;2023-07-02T10:42:19;3.08;;;2.13;;
47866;SDS011;33628;50.806;11.586;2023-07-02T10:44:47;4.15;;;2.08;;
47866;SDS011;33628;50.806;11.586;2023-07-02T10:47:16;3.30;;;2.05;;
47866;SDS011;33628;50.806;11.586;2023-07-02T10:49:44;5.90;;;2.95;;
47866;SDS011;33628;50.806;11.586;2023-07-02T10:52:12;5.75;;;2.50;;
47866;SDS011;33628;50.806;11.586;2023-07-02T10:54:41;5.43;;;2.45;;
47866;SDS011;33628;50.806;11.586;2023-07-02T10:57:12;3.67;;;2.13;;
47866;SDS011;33628;50.806;11.586;2023-07-02T10:59:41;6.07;;;2.50;;
47866;SDS011;33628;50.806;11.586;2023-07-02T11:02:08;6.03;;;2.53;;
47866;SDS011;33628;50.806;11.586;2023-07-02T11:04:36;4.75;;;2.83;;
47866;SDS011;33628;50.806;11.586;2023-07-02T11:07:04;5.55;;;3.05;;
47866;SDS011;33628;50.806;11.586;2023-07-02T11:09:32;3.08;;;2.35;;
47866;SDS011;33628;50.806;11.586;2023-07-02T11:12:03;5.80;;;3.10;;
47866;SDS011;33628;50.806;11.586;2023-07-02T11:14:34;6.07;;;2.40;;
47866;SDS011;33628;50.806;11.586;2023-07-02T11:17:03;5.78;;;2.88;;
47866;SDS011;33628;50.806;11.586;2023-07-02T11:19:31;5.05;;;2.55;;
47866;SDS011;33628;50.806;11.586;2023-07-02T11:21:58;5.10;;;2.60;;
47866;SDS011;33628;50.806;11.586;2023-07-02T11:24:28;3.92;;;2.67;;
47866;SDS011;33628;50.806;11.586;2023-07-02T11:26:56;6.32;;;3.53;;
47866;SDS011;33628;50.806;11.586;2023-07-02T11:29:23;4.65;;;2.83;;
47866;SDS011;33628;50.806;11.586;2023-07-02T11:31:51;3.67;;;2.53;;
47866;SDS011;33628;50.806;11.586;2023-07-02T11:34:19;6.93;;;3.10;;
47866;SDS011;33628;50.806;11.586;2023-07-02T11:36:46;3.50;;;2.55;;
47866;SDS011;33628;50.806;11.586;2023-07-02T11:39:13;5.93;;;2.78;;
47866;SDS011;33628;50.806;11.586;2023-07-02T11:41:44;6.10;;;2.70;;
47866;SDS011;33628;50.806;11.586;2023-07-02T11:44:11;5.43;;;3.00;;
47866;SDS011;33628;50.806;11.586;2023-07-02T11:46:38;4.30;;;2.95;;
47866;SDS011;33628;50.806;11.586;2023-07-02T11:49:05;4.90;;;3.03;;
47866;SDS011;33628;50.806;11.586;2023-07-02T11:51:35;4.70;;;3.22;;
47866;SDS011;33628;50.806;11.586;2023-07-02T11:54:02;5.93;;;3.30;;
47866;SDS011;33628;50.806;11.586;2023-07-02T11:56:30;11.48;;;3.25;;
47866;SDS011;33628;50.806;11.586;2023-07-02T11:58:57;5.85;;;3.60;;
47866;SDS011;33628;50.806;11.586;2023-07-02T12:01:25;7.75;;;4.00;;
47866;SDS011;33628;50.806;11.586;2023-07-02T12:03:51;6.43;;;4.10;;
47866;SDS011;33628;50.806;11.586;2023-07-02T12:06:20;6.82;;;3.80;;
47866;SDS011;33628;50.806;11.586;2023-07-02T12:08:47;7.03;;;4.00;;
47866;SDS011;33628;50.806;11.586;2023-07-02T12:11:14;7.00;;;3.65;;
47866;SDS011;33628;50.806;11.586;2023-07-02T12:13:41;7.85;;;3.47;;
47866;SDS011;33628;50.806;11.586;2023-07-02T12:16:08;7.70;;;4.10;;
47866;SDS011;33628;50.806;11.586;2023-07-02T12:18:36;12.13;;;4.13;;
47866;SDS011;33628;50.806;11.586;2023-07-02T12:21:02;10.48;;;3.65;;
47866;SDS011;33628;50.806;11.586;2023-07-02T12:23:30;5.93;;;3.78;;
47866;SDS011;33628;50.806;11.586;2023-07-02T12:25:58;7.20;;;4.28;;
47866;SDS011;33628;50.806;11.586;2023-07-02T12:28:24;6.47;;;3.55;;
47866;SDS011;33628;50.806;11.586;2023-07-02T12:30:51;6.65;;;3.65;;
47866;SDS011;33628;50.806;11.586;2023-07-02T12:33:18;5.28;;;3.72;;
47866;SDS011;33628;50.806;11.586;2023-07-02T12:35:46;6.82;;;3.83;;
47866;SDS011;33628;50.806;11.586;2023-07-02T12:38:12;7.47;;;4.78;;
47866;SDS011;33628;50.806;11.586;2023-07-02T12:40:41;7.68;;;4.00;;
47866;SDS011;33628;50.806;11.586;2023-07-02T12:43:08;6.93;;;4.35;;
47866;SDS011;33628;50.806;11.586;2023-07-02T12:45:35;8.75;;;4.40;;
47866;SDS011;33628;50.806;11.586;2023-07-02T12:48:02;10.48;;;4.10;;
47866;SDS011;33628;50.806;11.586;2023-07-02T12:50:30;8.52;;;4.63;;
47866;SDS011;33628;50.806;11.586;2023-07-02T12:52:57;9.05;;;4.40;;
47866;SDS011;33628;50.806;11.586;2023-07-02T12:55:24;6.95;;;4.18;;
47866;SDS011;33628;50.806;11.586;2023-07-02T12:57:54;8.13;;;4.68;;
47866;SDS011;33628;50.806;11.586;2023-07-02T13:00:22;6.95;;;4.75;;
47866;SDS011;33628;50.806;11.586;2023-07-02T13:02:49;8.93;;;4.88;;
47866;SDS011;33628;50.806;11.586;2023-07-02T13:05:16;11.60;;;4.78;;
47866;SDS011;33628;50.806;11.586;2023-07-02T13:07:43;8.43;;;4.47;;
47866;SDS011;33628;50.806;11.586;2023-07-02T13:10:10;7.80;;;4.72;;
47866;SDS011;33628;50.806;11.586;2023-07-02T13:12:37;9.23;;;5.00;;
47866;SDS011;33628;50.806;11.586;2023-07-02T13:15:05;8.13;;;5.10;;
47866;SDS011;33628;50.806;11.586;2023-07-02T13:17:33;10.18;;;5.57;;
47866;SDS011;33628;50.806;11.586;2023-07-02T13:20:00;7.72;;;5.05;;
47866;SDS011;33628;50.806;11.586;2023-07-02T13:22:27;11.00;;;5.10;;
47866;SDS011;33628;50.806;11.586;2023-07-02T13:24:55;7.55;;;5.13;;
47866;SDS011;33628;50.806;11.586;2023-07-02T13:27:21;10.88;;;5.40;;
47866;SDS011;33628;50.806;11.586;2023-07-02T13:29:48;10.98;;;5.82;;
47866;SDS011;33628;50.806;11.586;2023-07-02T13:32:17;8.35;;;5.10;;
47866;SDS011;33628;50.806;11.586;2023-07-02T13:34:48;8.70;;;5.18;;
47866;SDS011;33628;50.806;11.586;2023-07-02T13:37:15;8.60;;;4.75;;
47866;SDS011;33628;50.806;11.586;2023-07-02T13:39:45;10.10;;;5.13;;
47866;SDS011;33628;50.806;11.586;2023-07-02T13:42:12;9.07;;;5.38;;
47866;SDS011;33628;50.806;11.586;2023-07-02T13:44:40;10.20;;;5.13;;
47866;SDS011;33628;50.806;11.586;2023-07-02T13:47:07;9.77;;;4.88;;
47866;SDS011;33628;50.806;11.586;2023-07-02T13:49:37;8.68;;;5.15;;
47866;SDS011;33628;50.806;11.586;2023-07-02T13:52:06;9.32;;;5.20;;
47866;SDS011;33628;50.806;11.586;2023-07-02T13:54:34;10.60;;;5.47;;
47866;SDS011;33628;50.806;11.586;2023-07-02T13:57:02;11.77;;;5.90;;
47866;SDS011;33628;50.806;11.586;2023-07-02T13:59:33;11.10;;;5.47;;
47866;SDS011;33628;50.806;11.586;2023-07-02T14:02:02;9.48;;;5.15;;
47866;SDS011;33628;50.806;11.586;2023-07-02T14:04:32;11.43;;;5.63;;
47866;SDS011;33628;50.806;11.586;2023-07-02T14:06:59;9.90;;;5.30;;
47866;SDS011;33628;50.806;11.586;2023-07-02T14:09:28;10.98;;;5.30;;
47866;SDS011;33628;50.806;11.586;2023-07-02T14:11:56;8.90;;;5.10;;
47866;SDS011;33628;50.806;11.586;2023-07-02T14:14:23;9.45;;;5.25;;
47866;SDS011;33628;50.806;11.586;2023-07-02T14:16:51;9.32;;;5.22;;
47866;SDS011;33628;50.806;11.586;2023-07-02T14:19:19;8.45;;;5.38;;
47866;SDS011;33628;50.806;11.586;2023-07-02T14:21:46;10.45;;;5.55;;
47866;SDS011;33628;50.806;11.586;2023-07-02T14:24:13;12.52;;;6.30;;
47866;SDS011;33628;50.806;11.586;2023-07-02T14:26:40;14.05;;;5.75;;
47866;SDS011;33628;50.806;11.586;2023-07-02T14:29:09;10.27;;;5.82;;
47866;SDS011;33628;50.806;11.586;2023-07-02T14:31:36;10.90;;;5.63;;
47866;SDS011;33628;50.806;11.586;2023-07-02T14:34:04;10.90;;;5.35;;
47866;SDS011;33628;50.806;11.586;2023-07-02T14:36:31;9.35;;;5.30;;
47866;SDS011;33628;50.806;11.586;2023-07-02T14:38:57;14.57;;;6.53;;
47866;SDS011;33628;50.806;11.586;2023-07-02T14:41:25;13.10;;;5.97;;
47866;SDS011;33628;50.806;11.586;2023-07-02T14:43:52;9.65;;;5.60;;
47866;SDS011;33628;50.806;11.586;2023-07-02T14:46:19;10.57;;;6.05;;
47866;SDS011;33628;50.806;11.586;2023-07-02T14:48:47;7.68;;;5.45;;
47866;SDS011;33628;50.806;11.586;2023-07-02T14:51:15;8.25;;;5.13;;